Home   Weather   Copenhagen   Past weeks
Flag for Denmark

Past Weather in Copenhagen, Denmark — Yesterday and Last 2 Weeks

Currently: 72 °F. Mild. (Weather station: Koebenhavn-Kastrup Airport, Denmark). See more current weather

Past Weather in Copenhagen — Graph

°F

Copenhagen Temperature Yesterday

Maximum temperature yesterday: 73 °F (at 4:20 pm)
Minimum temperature yesterday: 55 °F (at 4:10 am)
Average temperature yesterday: 65 °F

High & Low Weather Summary for the Past Weeks

 TemperatureHumidityPressure
High84 °F (Aug 4, 5:20 pm)100% (Aug 1, 3:50 am)30.42 "Hg (Aug 1, 3:50 am)
Low48 °F (Jul 28, 4:50 am)38% (Jul 30, 12:50 pm)29.80 "Hg (Jul 26, 2:20 pm)
Average63 °F72%30.09 "Hg
* Reported Jul 26 2:20 pm — Aug 10 2:50 pm, Copenhagen. Weather by CustomWeather, © 2022

Note: Actual official high and low records may vary slightly from our data, if they occured in-between our weather recording intervals... More about our weather records

Copenhagen Weather History for the Previous 24 Hours

Scroll right to see more
 ConditionsComfort  
Time TempWeatherWind HumidityBarometerVisibility
2:50 pm
Wed, Aug 10
73 °FMild.10 mph53%30.36 "HgN/A
2:20 pm72 °FMild.10 mph57%30.36 "HgN/A
1:50 pm72 °FMild.9 mph53%30.39 "HgN/A
1:20 pm73 °FMild.7 mph57%30.39 "HgN/A
12:50 pm72 °FMild.7 mph61%30.39 "HgN/A
12:20 pm70 °FMild.8 mph60%30.39 "HgN/A
11:50 am68 °FMild.8 mph60%30.39 "HgN/A
10:50 am68 °FMild.8 mph60%30.42 "HgN/A
10:20 am68 °FMild.7 mph60%30.42 "HgN/A
9:50 am66 °FMild.6 mph64%30.42 "HgN/A
9:20 am66 °FMild.5 mph64%30.39 "HgN/A
8:50 am64 °FMild.3 mph68%30.39 "HgN/A
7:50 am64 °FMild.3 mph73%30.39 "HgN/A
7:20 am63 °FMild.3 mph77%30.39 "HgN/A
6:50 am63 °FMild.2 mph83%30.39 "HgN/A
6:20 am59 °FCool.1 mph88%30.39 "HgN/A
5:50 am55 °FCool.1 mph88%30.39 "HgN/A
5:20 am55 °FCool.1 mph94%30.39 "HgN/A
4:20 am57 °FCool.2 mph88%30.39 "HgN/A
3:50 am57 °FCool.2 mph88%30.39 "HgN/A
3:20 am59 °FCool.2 mph82%30.39 "HgN/A
2:50 am59 °FCool.2 mph88%30.39 "HgN/A
12:50 am59 °FCool.No wind82%30.39 "HgN/A
12:20 am61 °FCool.2 mph77%30.39 "HgN/A
11:50 pm
Tue, Aug 9
63 °FMild.6 mph77%30.39 "HgN/A
11:20 pm63 °FMild.6 mph77%30.39 "HgN/A
10:50 pm63 °FMild.3 mph73%30.39 "HgN/A
10:20 pm64 °FMild.6 mph68%30.39 "HgN/A
9:20 pm64 °FMild.7 mph68%30.39 "HgN/A
8:50 pm64 °FMild.6 mph68%30.39 "HgN/A
8:20 pm64 °FPassing clouds.5 mph73%30.39 "HgN/A
7:50 pm66 °FPartly sunny.6 mph73%30.39 "HgN/A
7:20 pm66 °FScattered clouds.6 mph68%30.39 "HgN/A
6:50 pm66 °FPassing clouds.8 mph73%30.39 "HgN/A
6:20 pm66 °FMild.8 mph73%30.39 "HgN/A
5:50 pm70 °FMild.7 mph60%30.39 "HgN/A
5:20 pm70 °FPassing clouds.8 mph60%30.39 "HgN/A
4:50 pm72 °FMild.8 mph57%30.39 "HgN/A
4:20 pm73 °FMild.9 mph50%30.39 "HgN/A
Weather by CustomWeather, © 2022

See weather overview